createdAt,value
2018-07-23T00:00:57.408Z,95993.00
2018-07-23T00:03:39.704Z,95981.00
2018-07-23T00:06:09.808Z,95983.00
2018-07-23T00:08:39.909Z,95984.00
2018-07-23T00:11:10.001Z,95981.00
2018-07-23T00:14:06.540Z,95985.00
2018-07-23T00:16:36.644Z,95991.00
2018-07-23T00:19:06.933Z,95984.00
2018-07-23T00:21:37.077Z,95983.00
2018-07-23T00:24:07.261Z,95987.00
2018-07-23T00:26:37.360Z,95987.00
2018-07-23T00:29:07.501Z,95983.00
2018-07-23T00:31:37.597Z,95966.00
2018-07-23T00:34:07.684Z,95972.00
2018-07-23T00:36:37.764Z,95973.00
2018-07-23T00:39:09.040Z,95979.00
2018-07-23T00:41:39.124Z,95972.00
2018-07-23T00:44:09.233Z,95970.00
2018-07-23T00:46:39.329Z,95966.00
2018-07-23T00:49:09.401Z,95958.00
2018-07-23T00:51:39.508Z,95966.00
2018-07-23T00:54:09.599Z,95964.00
2018-07-23T00:56:39.708Z,95955.00
2018-07-23T00:59:09.793Z,95956.00
2018-07-23T01:01:39.935Z,95964.00
2018-07-23T01:04:10.046Z,95951.00
2018-07-23T01:06:40.283Z,95948.00
2018-07-23T01:09:11.231Z,95953.00
2018-07-23T01:11:41.328Z,95954.00
2018-07-23T01:14:11.464Z,95951.00
2018-07-23T01:16:41.568Z,95952.00
2018-07-23T01:19:11.700Z,95947.00
2018-07-23T01:21:41.908Z,95946.00
2018-07-23T01:24:18.073Z,95946.00
2018-07-23T01:26:48.187Z,95943.00
2018-07-23T01:29:18.284Z,95952.00
2018-07-23T01:31:48.410Z,95940.00
2018-07-23T01:34:18.507Z,95938.00
2018-07-23T01:36:48.640Z,95940.00
2018-07-23T01:39:19.340Z,95943.00
2018-07-23T01:41:49.644Z,95933.00
2018-07-23T01:44:19.865Z,95920.00
2018-07-23T01:46:49.980Z,95928.00
2018-07-23T01:49:20.112Z,95935.00
2018-07-23T01:51:50.242Z,95924.00
2018-07-23T01:54:20.517Z,95930.00
2018-07-23T01:56:50.660Z,95927.00
2018-07-23T01:59:20.916Z,95924.00
2018-07-23T02:01:51.033Z,95929.00
2018-07-23T02:04:21.159Z,95920.00
2018-07-23T02:06:51.302Z,95916.00
2018-07-23T02:09:21.413Z,95913.00
2018-07-23T02:11:51.548Z,95908.00
2018-07-23T02:14:27.260Z,95907.00
2018-07-23T02:16:57.381Z,95917.00
2018-07-23T02:19:27.501Z,95911.00
2018-07-23T02:21:57.644Z,95914.00
2018-07-23T02:24:27.724Z,95907.00
2018-07-23T02:26:57.852Z,95900.00
2018-07-23T02:29:27.959Z,95904.00
2018-07-23T02:31:58.060Z,95904.00
2018-07-23T02:34:28.156Z,95905.00
2018-07-23T02:36:58.339Z,95918.00
2018-07-23T02:39:28.437Z,95903.00
2018-07-23T02:41:58.524Z,95902.00
2018-07-23T02:44:28.642Z,95908.00
2018-07-23T02:46:58.737Z,95903.00
2018-07-23T02:49:28.832Z,95907.00
2018-07-23T02:51:58.978Z,95911.00
2018-07-23T02:54:29.056Z,95909.00
2018-07-23T02:56:59.148Z,95916.00
2018-07-23T02:59:29.268Z,95910.00
2018-07-23T03:01:59.436Z,95909.00
2018-07-23T03:04:29.521Z,95916.00
2018-07-23T03:06:59.656Z,95910.00
2018-07-23T03:09:29.737Z,95930.00
2018-07-23T03:11:59.908Z,95917.00
2018-07-23T03:14:30.085Z,95916.00
2018-07-23T03:17:00.224Z,95917.00
2018-07-23T03:19:30.392Z,95922.00
2018-07-23T03:22:00.546Z,95915.00
2018-07-23T03:24:30.604Z,95914.00
2018-07-23T03:27:07.452Z,95924.00
2018-07-23T03:29:38.228Z,95928.00
2018-07-23T03:32:08.368Z,95929.00
2018-07-23T03:34:38.513Z,95923.00
2018-07-23T03:37:08.632Z,95928.00
2018-07-23T03:39:38.707Z,95924.00
2018-07-23T03:42:09.580Z,95934.00
2018-07-23T03:44:39.666Z,95936.00
2018-07-23T03:47:09.764Z,95929.00
2018-07-23T03:49:39.876Z,95928.00
2018-07-23T03:52:10.007Z,95942.00
2018-07-23T03:54:40.108Z,95935.00
2018-07-23T03:57:10.212Z,95939.00
2018-07-23T03:59:40.288Z,95943.00
2018-07-23T04:02:10.467Z,95938.00
2018-07-23T04:04:40.572Z,95932.00
2018-07-23T04:07:10.700Z,95931.00
2018-07-23T04:09:40.785Z,95930.00
2018-07-23T04:12:10.936Z,95931.00
2018-07-23T04:14:41.081Z,95939.00
2018-07-23T04:17:11.597Z,95943.00
2018-07-23T04:19:41.704Z,95948.00
2018-07-23T04:22:11.873Z,95947.00
2018-07-23T04:24:41.944Z,95938.00
2018-07-23T04:27:12.049Z,95938.00
2018-07-23T04:29:42.148Z,95938.00
2018-07-23T04:32:12.452Z,95933.00
2018-07-23T04:34:42.532Z,95935.00
2018-07-23T04:37:12.604Z,95938.00
2018-07-23T04:39:42.820Z,95937.00
2018-07-23T04:42:12.934Z,95941.00
2018-07-23T04:44:42.976Z,95936.00
2018-07-23T04:47:13.059Z,95941.00
2018-07-23T04:49:43.153Z,95937.00
2018-07-23T04:52:13.228Z,95937.00
2018-07-23T04:54:43.334Z,95940.00
2018-07-23T04:57:13.427Z,95929.00
2018-07-23T04:59:43.552Z,95930.00
2018-07-23T05:02:13.676Z,95934.00
2018-07-23T05:04:43.760Z,95939.00
2018-07-23T05:07:13.865Z,95935.00
2018-07-23T05:09:44.312Z,95932.00
2018-07-23T05:12:14.400Z,95943.00
2018-07-23T05:14:44.527Z,95941.00
2018-07-23T05:17:14.829Z,95947.00
2018-07-23T05:19:45.272Z,95939.00
2018-07-23T05:22:15.341Z,95926.00
2018-07-23T05:24:46.224Z,95939.00
2018-07-23T05:27:16.361Z,95935.00
2018-07-23T05:29:46.440Z,95933.00
2018-07-23T05:32:16.820Z,95947.00
2018-07-23T05:34:46.972Z,95949.00
2018-07-23T05:37:17.149Z,95944.00
2018-07-23T05:39:47.265Z,95943.00
2018-07-23T05:42:17.416Z,95947.00
2018-07-23T05:44:47.524Z,95936.00
2018-07-23T05:47:17.616Z,95935.00
2018-07-23T05:49:47.724Z,95939.00
2018-07-23T05:52:17.824Z,95937.00
2018-07-23T05:54:47.909Z,95947.00
2018-07-23T05:57:18.028Z,95939.00
2018-07-23T05:59:48.095Z,95937.00
2018-07-23T06:02:18.211Z,95948.00
2018-07-23T06:04:48.303Z,95949.00
2018-07-23T06:07:18.399Z,95946.00
2018-07-23T06:09:48.477Z,95944.00
2018-07-23T06:12:18.599Z,95944.00
2018-07-23T06:14:48.720Z,95952.00
2018-07-23T06:17:18.799Z,95958.00
2018-07-23T06:19:48.895Z,95954.00
2018-07-23T06:22:19.028Z,95952.00
2018-07-23T06:24:49.124Z,95958.00
2018-07-23T06:27:19.236Z,95960.00
2018-07-23T06:29:49.329Z,95959.00
2018-07-23T06:32:19.526Z,95954.00
2018-07-23T06:34:49.664Z,95962.00
2018-07-23T06:37:19.780Z,95971.00
2018-07-23T06:39:49.892Z,95949.00
2018-07-23T06:42:20.013Z,95959.00
2018-07-23T06:44:50.099Z,95967.00
2018-07-23T06:47:20.191Z,95971.00
2018-07-23T06:49:50.312Z,95977.00
2018-07-23T06:52:20.385Z,95983.00
2018-07-23T06:54:50.484Z,95978.00
2018-07-23T06:57:20.618Z,95981.00
2018-07-23T06:59:50.776Z,95984.00
2018-07-23T07:02:20.865Z,95983.00
2018-07-23T07:04:50.968Z,95985.00
2018-07-23T07:07:21.055Z,95984.00
2018-07-23T07:09:51.156Z,95989.00
2018-07-23T07:12:21.277Z,95973.00
2018-07-23T07:14:51.367Z,95987.00
2018-07-23T07:17:21.441Z,95994.00
2018-07-23T07:19:51.543Z,95990.00
2018-07-23T07:22:21.660Z,95994.00
2018-07-23T07:24:51.732Z,96005.00
2018-07-23T07:27:21.816Z,96002.00
2018-07-23T07:29:51.913Z,96001.00
2018-07-23T07:32:22.012Z,96010.00
2018-07-23T07:34:52.161Z,96011.00
2018-07-23T07:37:22.184Z,96006.00
2018-07-23T07:39:52.244Z,96013.00
2018-07-23T07:42:22.353Z,96013.00
2018-07-23T07:44:52.429Z,96013.00
2018-07-23T07:47:22.536Z,96020.00
2018-07-23T07:49:52.626Z,96012.00
2018-07-23T07:52:22.733Z,96022.00
2018-07-23T07:54:52.820Z,96016.00
2018-07-23T07:57:22.969Z,96011.00
2018-07-23T07:59:53.162Z,96037.00
2018-07-23T08:02:23.272Z,96022.00
2018-07-23T08:04:53.373Z,96016.00
2018-07-23T08:07:23.481Z,96028.00
2018-07-23T08:09:53.552Z,96025.00
2018-07-23T08:12:23.730Z,96026.00
2018-07-23T08:14:53.816Z,96026.00
2018-07-23T08:17:23.941Z,96018.00
2018-07-23T08:19:54.052Z,96029.00
2018-07-23T08:22:24.176Z,96026.00
2018-07-23T08:24:54.284Z,96023.00
2018-07-23T08:27:24.396Z,96030.00
2018-07-23T08:29:54.489Z,96032.00
2018-07-23T08:32:24.654Z,96039.00
2018-07-23T08:34:54.803Z,96041.00
2018-07-23T08:37:24.973Z,96044.00
2018-07-23T08:39:55.093Z,96042.00
2018-07-23T08:42:25.180Z,96042.00
2018-07-23T08:44:55.331Z,96050.00
2018-07-23T08:47:25.400Z,96055.00
2018-07-23T08:49:55.480Z,96056.00
2018-07-23T08:52:25.580Z,96063.00
2018-07-23T08:54:55.712Z,96075.00
2018-07-23T08:57:25.928Z,96072.00
2018-07-23T08:59:56.021Z,96075.00
2018-07-23T09:02:26.220Z,96079.00
2018-07-23T09:04:56.320Z,96084.00
2018-07-23T09:07:26.408Z,96090.00
2018-07-23T09:09:56.487Z,96089.00
2018-07-23T09:12:26.591Z,96096.00
2018-07-23T09:14:56.676Z,96099.00
2018-07-23T09:17:26.778Z,96095.00
2018-07-23T09:19:56.881Z,96109.00
2018-07-23T09:22:27.008Z,96113.00
2018-07-23T09:24:57.144Z,96117.00
2018-07-23T09:27:29.155Z,96104.00
2018-07-23T09:29:59.301Z,96106.00
2018-07-23T09:32:29.362Z,96111.00
2018-07-23T09:34:59.435Z,96103.00
2018-07-23T09:37:29.501Z,96097.00
2018-07-23T09:39:59.628Z,96113.00
2018-07-23T09:42:29.720Z,96114.00
2018-07-23T09:44:59.830Z,96123.00
2018-07-23T09:47:29.896Z,96125.00
2018-07-23T09:49:59.980Z,96128.00
2018-07-23T09:52:30.056Z,96124.00
2018-07-23T09:55:00.118Z,96125.00
2018-07-23T09:57:30.196Z,96138.00
2018-07-23T10:00:00.256Z,96143.00
2018-07-23T10:02:30.388Z,96152.00
2018-07-23T10:05:00.508Z,96143.00
2018-07-23T10:07:30.649Z,96148.00
2018-07-23T10:10:00.720Z,96138.00
2018-07-23T10:12:30.832Z,96131.00
2018-07-23T10:15:00.979Z,96146.00
2018-07-23T10:17:31.094Z,96148.00
2018-07-23T10:20:01.164Z,96155.00
2018-07-23T10:22:31.232Z,96152.00
2018-07-23T10:25:01.476Z,96148.00
2018-07-23T10:27:31.581Z,96151.00
2018-07-23T10:30:01.877Z,96148.00
2018-07-23T10:32:31.965Z,96142.00
2018-07-23T10:35:02.277Z,96151.00
2018-07-23T10:37:32.372Z,96141.00
2018-07-23T10:40:02.457Z,96143.00
2018-07-23T10:42:32.573Z,96133.00
2018-07-23T10:45:02.728Z,96145.00
2018-07-23T10:47:32.796Z,96153.00
2018-07-23T10:50:02.984Z,96155.00
2018-07-23T10:52:33.040Z,96153.00
2018-07-23T10:55:03.184Z,96150.00
2018-07-23T10:57:33.303Z,96153.00
2018-07-23T11:00:03.456Z,96158.00
2018-07-23T11:02:33.604Z,96159.00
2018-07-23T11:05:03.788Z,96165.00
2018-07-23T11:07:33.976Z,96166.00
2018-07-23T11:10:04.149Z,96164.00
2018-07-23T11:12:34.236Z,96171.00
2018-07-23T11:15:08.056Z,96184.00
2018-07-23T11:17:38.520Z,96186.00
2018-07-23T11:20:11.464Z,96188.00
2018-07-23T11:22:41.854Z,96193.00
2018-07-23T11:25:39.876Z,96192.00
2018-07-23T11:27:42.084Z,96192.00
2018-07-23T11:30:12.192Z,96214.00
2018-07-23T11:32:42.255Z,96209.00
2018-07-23T11:35:12.344Z,96214.00
2018-07-23T11:37:42.392Z,96203.00
2018-07-23T11:40:12.505Z,96211.00
2018-07-23T11:42:42.636Z,96212.00
2018-07-23T11:45:12.685Z,96217.00
2018-07-23T11:47:42.800Z,96214.00
2018-07-23T11:50:12.860Z,96216.00
2018-07-23T11:52:42.960Z,96217.00
2018-07-23T11:55:13.157Z,96221.00
2018-07-23T11:57:43.240Z,96223.00
2018-07-23T12:00:13.313Z,96234.00
2018-07-23T12:02:43.608Z,96239.00
2018-07-23T12:05:13.688Z,96237.00
2018-07-23T12:07:43.772Z,96245.00
2018-07-23T12:10:13.919Z,96237.00
2018-07-23T12:12:44.017Z,96245.00
2018-07-23T12:15:14.142Z,96236.00
2018-07-23T12:17:44.200Z,96242.00
2018-07-23T12:20:15.552Z,96241.00
2018-07-23T12:22:45.628Z,96241.00
2018-07-23T12:25:15.759Z,96240.00
2018-07-23T12:27:45.832Z,96231.00
2018-07-23T12:30:15.951Z,96239.00
2018-07-23T12:32:46.020Z,96231.00
2018-07-23T12:35:16.123Z,96227.00
2018-07-23T12:37:46.204Z,96231.00
2018-07-23T12:40:16.604Z,96231.00
2018-07-23T12:42:47.232Z,96227.00
2018-07-23T12:45:17.387Z,96231.00
2018-07-23T12:47:47.600Z,96228.00
2018-07-23T12:50:18.068Z,96233.00
2018-07-23T12:52:48.173Z,96232.00
2018-07-23T12:55:18.271Z,96217.00
2018-07-23T12:57:48.345Z,96216.00
2018-07-23T13:00:18.469Z,96212.00
2018-07-23T13:02:48.549Z,96213.00
2018-07-23T13:05:18.698Z,96212.00
2018-07-23T13:07:48.776Z,96214.00
2018-07-23T13:10:18.864Z,96210.00
2018-07-23T13:12:49.056Z,96198.00
2018-07-23T13:15:19.233Z,96202.00
2018-07-23T13:17:49.448Z,96201.00
2018-07-23T13:20:19.615Z,96195.00
2018-07-23T13:22:49.860Z,96204.00
2018-07-23T13:25:19.993Z,96196.00
2018-07-23T13:27:50.073Z,96197.00
2018-07-23T13:30:20.151Z,96198.00
2018-07-23T13:32:50.524Z,96195.00
2018-07-23T13:35:20.604Z,96190.00
2018-07-23T13:37:50.702Z,96188.00
2018-07-23T13:40:20.820Z,96182.00
2018-07-23T13:42:50.904Z,96179.00
2018-07-23T13:45:21.340Z,96185.00
2018-07-23T13:47:51.684Z,96173.00
2018-07-23T13:50:21.880Z,96165.00
2018-07-23T13:52:51.938Z,96168.00
2018-07-23T13:55:22.041Z,96165.00
2018-07-23T13:57:52.476Z,96167.00
2018-07-23T14:00:22.778Z,96161.00
2018-07-23T14:02:52.872Z,96152.00
2018-07-23T14:05:22.936Z,96146.00
2018-07-23T14:07:53.024Z,96150.00
2018-07-23T14:10:23.092Z,96144.00
2018-07-23T14:12:53.268Z,96145.00
2018-07-23T14:15:23.364Z,96148.00
2018-07-23T14:17:53.500Z,96147.00
2018-07-23T14:20:23.652Z,96138.00
2018-07-23T14:22:53.812Z,96138.00
2018-07-23T14:25:23.919Z,96140.00
2018-07-23T14:27:54.132Z,96128.00
2018-07-23T14:30:24.199Z,96128.00
2018-07-23T14:32:54.379Z,96128.00
2018-07-23T14:35:24.459Z,96129.00
2018-07-23T14:37:54.524Z,96129.00
2018-07-23T14:40:24.604Z,96128.00
2018-07-23T14:42:54.680Z,96121.00
2018-07-23T14:45:24.780Z,96110.00
2018-07-23T14:47:54.876Z,96113.00
2018-07-23T14:50:25.017Z,96110.00
2018-07-23T14:52:55.073Z,96113.00
2018-07-23T14:55:25.164Z,96116.00
2018-07-23T14:57:55.242Z,96105.00
2018-07-23T15:00:25.377Z,96109.00
2018-07-23T15:02:55.452Z,96113.00
2018-07-23T15:05:25.592Z,96099.00
2018-07-23T15:07:55.664Z,96097.00
2018-07-23T15:10:25.744Z,96095.00
2018-07-23T15:12:55.813Z,96077.00
2018-07-23T15:15:25.892Z,96077.00
2018-07-23T15:17:55.959Z,96078.00
2018-07-23T15:20:26.036Z,96083.00
2018-07-23T15:22:56.112Z,96073.00
2018-07-23T15:25:26.217Z,96079.00
2018-07-23T15:27:56.304Z,96083.00
2018-07-23T15:30:26.400Z,96083.00
2018-07-23T15:32:56.483Z,96087.00
2018-07-23T15:35:26.595Z,96092.00
2018-07-23T15:37:56.657Z,96093.00
2018-07-23T15:40:26.754Z,96093.00
2018-07-23T15:42:56.840Z,96095.00
2018-07-23T15:45:27.079Z,96092.00
2018-07-23T15:47:57.084Z,96087.00
2018-07-23T15:50:27.169Z,96089.00
2018-07-23T15:52:57.301Z,96089.00
2018-07-23T15:55:27.452Z,96086.00
2018-07-23T15:57:57.805Z,96091.00
2018-07-23T16:00:27.888Z,96101.00
2018-07-23T16:02:58.034Z,96089.00
2018-07-23T16:05:28.148Z,96086.00
2018-07-23T16:07:58.403Z,96093.00
2018-07-23T16:10:28.511Z,96101.00
2018-07-23T16:12:58.645Z,96088.00
2018-07-23T16:15:28.730Z,96083.00
2018-07-23T16:17:58.838Z,96088.00
2018-07-23T16:20:28.983Z,96088.00
2018-07-23T16:22:59.116Z,96085.00
2018-07-23T16:25:29.312Z,96086.00
2018-07-23T16:27:59.516Z,96091.00
2018-07-23T16:30:29.624Z,96090.00
2018-07-23T16:32:59.696Z,96087.00
2018-07-23T16:35:29.814Z,96093.00
2018-07-23T16:37:59.912Z,96097.00
2018-07-23T16:40:30.013Z,96091.00
2018-07-23T16:43:00.135Z,96107.00
2018-07-23T16:45:30.283Z,96092.00
2018-07-23T16:48:00.366Z,96102.00
2018-07-23T16:50:30.479Z,96108.00
2018-07-23T16:53:00.545Z,96106.00
2018-07-23T16:55:30.736Z,96113.00
2018-07-23T16:58:00.799Z,96118.00
2018-07-23T17:00:30.928Z,96110.00
2018-07-23T17:03:01.007Z,96114.00
2018-07-23T17:05:31.105Z,96118.00
2018-07-23T17:08:01.184Z,96119.00
2018-07-23T17:10:31.268Z,96118.00
2018-07-23T17:13:01.328Z,96123.00
2018-07-23T17:15:31.396Z,96118.00
2018-07-23T17:18:01.559Z,96126.00
2018-07-23T17:20:31.560Z,96124.00
2018-07-23T17:23:01.723Z,96124.00
2018-07-23T17:25:31.803Z,96127.00
2018-07-23T17:28:01.892Z,96127.00
2018-07-23T17:30:32.036Z,96134.00
2018-07-23T17:33:02.092Z,96129.00
2018-07-23T17:35:32.231Z,96132.00
2018-07-23T17:38:02.287Z,96134.00
2018-07-23T17:40:32.436Z,96134.00
2018-07-23T17:43:02.555Z,96131.00
2018-07-23T17:45:32.606Z,96140.00
2018-07-23T17:48:02.673Z,96141.00
2018-07-23T17:50:32.736Z,96144.00
2018-07-23T17:53:02.812Z,96135.00
2018-07-23T17:55:32.936Z,96149.00
2018-07-23T17:58:03.144Z,96150.00
2018-07-23T18:00:33.334Z,96149.00
2018-07-23T18:03:03.470Z,96153.00
2018-07-23T18:05:33.604Z,96146.00
2018-07-23T18:08:03.728Z,96151.00
2018-07-23T18:10:33.812Z,96153.00
2018-07-23T18:13:03.931Z,96151.00
2018-07-23T18:15:34.028Z,96144.00
2018-07-23T18:18:04.132Z,96157.00
2018-07-23T18:20:34.264Z,96154.00
2018-07-23T18:23:04.347Z,96150.00
2018-07-23T18:25:34.536Z,96159.00
2018-07-23T18:28:04.769Z,96154.00
2018-07-23T18:30:34.864Z,96154.00
2018-07-23T18:33:04.964Z,96153.00
2018-07-23T18:35:35.040Z,96158.00
2018-07-23T18:38:05.430Z,96163.00
2018-07-23T18:40:35.444Z,96170.00
2018-07-23T18:43:05.716Z,96175.00
2018-07-23T18:45:35.892Z,96170.00
2018-07-23T18:48:21.600Z,96164.00
2018-07-23T18:50:51.704Z,96172.00
2018-07-23T18:53:22.804Z,96174.00
2018-07-23T18:55:52.979Z,96171.00
2018-07-23T18:58:23.092Z,96179.00
2018-07-23T19:00:53.256Z,96185.00
2018-07-23T19:03:23.348Z,96193.00
2018-07-23T19:05:53.420Z,96198.00
2018-07-23T19:08:23.543Z,96203.00
2018-07-23T19:10:53.600Z,96200.00
2018-07-23T19:13:23.704Z,96210.00
2018-07-23T19:15:53.804Z,96214.00
2018-07-23T19:18:23.939Z,96200.00
2018-07-23T19:20:54.050Z,96212.00
2018-07-23T19:23:24.148Z,96219.00
2018-07-23T19:25:54.235Z,96219.00
2018-07-23T19:28:24.378Z,96227.00
2018-07-23T19:30:54.604Z,96218.00
2018-07-23T19:33:24.696Z,96223.00
2018-07-23T19:35:54.789Z,96227.00
2018-07-23T19:38:24.981Z,96230.00
2018-07-23T19:40:55.381Z,96230.00
2018-07-23T19:43:25.471Z,96233.00
2018-07-23T19:45:55.591Z,96243.00
2018-07-23T19:48:25.672Z,96239.00
2018-07-23T19:50:55.768Z,96244.00
2018-07-23T19:53:25.857Z,96234.00
2018-07-23T19:55:55.943Z,96240.00
2018-07-23T19:58:26.092Z,96241.00
2018-07-23T20:00:56.260Z,96239.00
2018-07-23T20:03:26.365Z,96243.00
2018-07-23T20:05:56.597Z,96240.00
2018-07-23T20:08:26.924Z,96240.00
2018-07-23T20:10:57.052Z,96248.00
2018-07-23T20:13:27.420Z,96248.00
2018-07-23T20:15:57.948Z,96246.00
2018-07-23T20:18:28.136Z,96246.00
2018-07-23T20:20:58.373Z,96250.00
2018-07-23T20:23:28.491Z,96252.00
2018-07-23T20:25:58.624Z,96258.00
2018-07-23T20:28:28.784Z,96252.00
2018-07-23T20:30:58.844Z,96254.00
2018-07-23T20:33:29.000Z,96251.00
2018-07-23T20:35:59.126Z,96249.00
2018-07-23T20:38:29.293Z,96252.00
2018-07-23T20:40:59.585Z,96242.00
2018-07-23T20:43:30.453Z,96241.00
2018-07-23T20:46:00.888Z,96242.00
2018-07-23T21:24:12.484Z,96241.00
2018-07-23T21:46:53.760Z,96258.00
2018-07-23T21:49:26.304Z,96271.00
2018-07-23T22:01:18.404Z,96285.00
2018-07-23T22:04:52.057Z,96280.00
2018-07-23T22:07:38.413Z,96283.00
2018-07-23T22:36:52.291Z,96259.00
2018-07-23T22:45:53.441Z,96259.00
2018-07-23T22:48:23.548Z,96252.00
2018-07-23T22:50:55.038Z,96251.00
2018-07-23T22:56:28.182Z,96271.00
2018-07-23T22:58:59.113Z,96269.00
2018-07-23T23:18:46.261Z,96275.00
2018-07-23T23:21:16.458Z,96279.00
2018-07-23T23:26:29.866Z,96277.00
2018-07-23T23:35:35.820Z,96276.00
2018-07-23T23:41:13.316Z,96270.00
2018-07-23T23:50:09.318Z,96267.00
